sensor_id;sensor_type;location;lat;lon;timestamp;temperature;humidity
34985;DHT22;21190;58.750;17.004;2022-11-13T00:02:05;5.90;99.90
34985;DHT22;21190;58.750;17.004;2022-11-13T00:04:32;5.70;99.90
34985;DHT22;21190;58.750;17.004;2022-11-13T00:06:58;5.60;99.90
34985;DHT22;21190;58.750;17.004;2022-11-13T00:09:25;5.60;99.90
34985;DHT22;21190;58.750;17.004;2022-11-13T00:11:52;5.50;99.90
34985;DHT22;21190;58.750;17.004;2022-11-13T00:14:19;5.50;99.90
34985;DHT22;21190;58.750;17.004;2022-11-13T00:16:46;5.50;99.90
34985;DHT22;21190;58.750;17.004;2022-11-13T00:19:13;5.60;99.90
34985;DHT22;21190;58.750;17.004;2022-11-13T00:21:40;5.60;99.90
34985;DHT22;21190;58.750;17.004;2022-11-13T00:24:07;5.70;99.90
34985;DHT22;21190;58.750;17.004;2022-11-13T00:26:34;5.60;99.90
34985;DHT22;21190;58.750;17.004;2022-11-13T00:29:01;5.60;99.90
34985;DHT22;21190;58.750;17.004;2022-11-13T00:31:28;5.50;99.90
34985;DHT22;21190;58.750;17.004;2022-11-13T00:33:56;5.40;99.90
34985;DHT22;21190;58.750;17.004;2022-11-13T00:36:43;5.40;99.90
34985;DHT22;21190;58.750;17.004;2022-11-13T00:39:10;5.40;99.90
34985;DHT22;21190;58.750;17.004;2022-11-13T00:41:37;5.30;99.90
34985;DHT22;21190;58.750;17.004;2022-11-13T00:44:04;5.30;99.90
34985;DHT22;21190;58.750;17.004;2022-11-13T00:46:30;5.30;99.90
34985;DHT22;21190;58.750;17.004;2022-11-13T00:48:57;5.30;99.90
34985;DHT22;21190;58.750;17.004;2022-11-13T00:51:24;5.30;99.90
34985;DHT22;21190;58.750;17.004;2022-11-13T00:53:51;5.30;99.90
34985;DHT22;21190;58.750;17.004;2022-11-13T00:56:18;5.20;99.90
34985;DHT22;21190;58.750;17.004;2022-11-13T00:58:45;5.20;99.90
34985;DHT22;21190;58.750;17.004;2022-11-13T01:01:13;5.20;99.90
34985;DHT22;21190;58.750;17.004;2022-11-13T01:03:40;5.10;99.90
34985;DHT22;21190;58.750;17.004;2022-11-13T01:06:11;5.00;99.90
34985;DHT22;21190;58.750;17.004;2022-11-13T01:08:39;5.10;99.90
34985;DHT22;21190;58.750;17.004;2022-11-13T01:11:07;5.10;99.90
34985;DHT22;21190;58.750;17.004;2022-11-13T01:13:34;5.10;99.90
34985;DHT22;21190;58.750;17.004;2022-11-13T01:16:03;5.10;99.90
34985;DHT22;21190;58.750;17.004;2022-11-13T01:18:30;5.20;99.90
34985;DHT22;21190;58.750;17.004;2022-11-13T01:21:01;5.10;99.90
34985;DHT22;21190;58.750;17.004;2022-11-13T01:23:28;5.10;99.90
34985;DHT22;21190;58.750;17.004;2022-11-13T01:25:55;5.10;99.90
34985;DHT22;21190;58.750;17.004;2022-11-13T01:28:29;5.10;99.90
34985;DHT22;21190;58.750;17.004;2022-11-13T01:30:56;5.10;99.90
34985;DHT22;21190;58.750;17.004;2022-11-13T01:33:23;5.00;99.90
34985;DHT22;21190;58.750;17.004;2022-11-13T01:35:50;4.90;99.90
34985;DHT22;21190;58.750;17.004;2022-11-13T01:38:16;5.00;99.90
34985;DHT22;21190;58.750;17.004;2022-11-13T01:40:44;5.10;99.90
34985;DHT22;21190;58.750;17.004;2022-11-13T01:43:21;5.00;99.90
34985;DHT22;21190;58.750;17.004;2022-11-13T01:48:25;5.00;99.90
34985;DHT22;21190;58.750;17.004;2022-11-13T01:50:55;5.00;99.90
34985;DHT22;21190;58.750;17.004;2022-11-13T01:53:21;5.00;99.90
34985;DHT22;21190;58.750;17.004;2022-11-13T01:55:48;5.00;99.90
34985;DHT22;21190;58.750;17.004;2022-11-13T01:58:15;5.00;99.90
34985;DHT22;21190;58.750;17.004;2022-11-13T02:00:42;5.00;99.90
34985;DHT22;21190;58.750;17.004;2022-11-13T02:03:09;5.00;99.90
34985;DHT22;21190;58.750;17.004;2022-11-13T02:05:37;5.00;99.90
34985;DHT22;21190;58.750;17.004;2022-11-13T02:08:03;5.00;99.90
34985;DHT22;21190;58.750;17.004;2022-11-13T02:10:30;5.00;99.90
34985;DHT22;21190;58.750;17.004;2022-11-13T02:12:57;4.90;99.90
34985;DHT22;21190;58.750;17.004;2022-11-13T02:15:24;4.90;99.90
34985;DHT22;21190;58.750;17.004;2022-11-13T02:17:55;4.90;99.90
34985;DHT22;21190;58.750;17.004;2022-11-13T02:20:31;4.90;99.90
34985;DHT22;21190;58.750;17.004;2022-11-13T02:23:11;4.90;99.90
34985;DHT22;21190;58.750;17.004;2022-11-13T02:25:40;4.90;99.90
34985;DHT22;21190;58.750;17.004;2022-11-13T02:28:07;4.90;99.90
34985;DHT22;21190;58.750;17.004;2022-11-13T02:30:34;4.90;99.90
34985;DHT22;21190;58.750;17.004;2022-11-13T02:33:01;5.00;99.90
34985;DHT22;21190;58.750;17.004;2022-11-13T02:35:29;5.00;99.90
34985;DHT22;21190;58.750;17.004;2022-11-13T02:37:58;5.00;99.90
34985;DHT22;21190;58.750;17.004;2022-11-13T02:40:25;5.00;99.90
34985;DHT22;21190;58.750;17.004;2022-11-13T02:42:52;5.10;99.90
34985;DHT22;21190;58.750;17.004;2022-11-13T02:45:19;5.10;99.90
34985;DHT22;21190;58.750;17.004;2022-11-13T02:47:46;5.00;99.90
34985;DHT22;21190;58.750;17.004;2022-11-13T02:50:13;5.10;99.90
34985;DHT22;21190;58.750;17.004;2022-11-13T02:52:40;5.10;99.90
34985;DHT22;21190;58.750;17.004;2022-11-13T02:55:07;5.00;99.90
34985;DHT22;21190;58.750;17.004;2022-11-13T02:57:34;5.00;99.90
34985;DHT22;21190;58.750;17.004;2022-11-13T03:00:02;5.10;99.90
34985;DHT22;21190;58.750;17.004;2022-11-13T03:02:34;5.10;99.90
34985;DHT22;21190;58.750;17.004;2022-11-13T03:05:01;5.10;99.90
34985;DHT22;21190;58.750;17.004;2022-11-13T03:07:38;5.20;99.90
34985;DHT22;21190;58.750;17.004;2022-11-13T03:10:06;5.10;99.90
34985;DHT22;21190;58.750;17.004;2022-11-13T03:12:33;5.10;99.90
34985;DHT22;21190;58.750;17.004;2022-11-13T03:15:00;5.20;99.90
34985;DHT22;21190;58.750;17.004;2022-11-13T03:17:29;5.10;99.90
34985;DHT22;21190;58.750;17.004;2022-11-13T03:19:56;5.10;99.90
34985;DHT22;21190;58.750;17.004;2022-11-13T03:22:23;5.00;99.90
34985;DHT22;21190;58.750;17.004;2022-11-13T03:24:50;5.20;99.90
34985;DHT22;21190;58.750;17.004;2022-11-13T03:27:17;5.20;99.90
34985;DHT22;21190;58.750;17.004;2022-11-13T03:29:44;5.10;99.90
34985;DHT22;21190;58.750;17.004;2022-11-13T03:32:11;5.10;99.90
34985;DHT22;21190;58.750;17.004;2022-11-13T03:34:38;5.20;99.90
34985;DHT22;21190;58.750;17.004;2022-11-13T03:37:05;5.20;99.90
34985;DHT22;21190;58.750;17.004;2022-11-13T03:39:32;5.20;99.90
34985;DHT22;21190;58.750;17.004;2022-11-13T03:41:58;5.30;99.90
34985;DHT22;21190;58.750;17.004;2022-11-13T03:44:25;5.20;99.90
34985;DHT22;21190;58.750;17.004;2022-11-13T03:46:52;5.20;99.90
34985;DHT22;21190;58.750;17.004;2022-11-13T03:49:19;5.30;99.90
34985;DHT22;21190;58.750;17.004;2022-11-13T03:51:46;5.20;99.90
34985;DHT22;21190;58.750;17.004;2022-11-13T03:54:13;5.20;99.90
34985;DHT22;21190;58.750;17.004;2022-11-13T03:56:40;5.10;99.90
34985;DHT22;21190;58.750;17.004;2022-11-13T03:59:07;5.10;99.90
34985;DHT22;21190;58.750;17.004;2022-11-13T04:01:34;5.10;99.90
34985;DHT22;21190;58.750;17.004;2022-11-13T04:04:01;5.10;99.90
34985;DHT22;21190;58.750;17.004;2022-11-13T04:06:27;5.10;99.90
34985;DHT22;21190;58.750;17.004;2022-11-13T04:08:54;5.10;99.90
34985;DHT22;21190;58.750;17.004;2022-11-13T04:11:21;5.10;99.90
34985;DHT22;21190;58.750;17.004;2022-11-13T04:13:48;5.20;99.90
34985;DHT22;21190;58.750;17.004;2022-11-13T04:16:15;5.30;99.90
34985;DHT22;21190;58.750;17.004;2022-11-13T04:18:42;5.30;99.90
34985;DHT22;21190;58.750;17.004;2022-11-13T04:21:09;5.40;99.90
34985;DHT22;21190;58.750;17.004;2022-11-13T04:23:36;5.40;99.90
34985;DHT22;21190;58.750;17.004;2022-11-13T04:26:03;5.40;99.90
34985;DHT22;21190;58.750;17.004;2022-11-13T04:28:30;5.40;99.90
34985;DHT22;21190;58.750;17.004;2022-11-13T04:30:57;5.50;99.90
34985;DHT22;21190;58.750;17.004;2022-11-13T04:33:24;5.60;99.90
34985;DHT22;21190;58.750;17.004;2022-11-13T04:35:51;5.60;99.90
34985;DHT22;21190;58.750;17.004;2022-11-13T04:38:18;5.50;99.90
34985;DHT22;21190;58.750;17.004;2022-11-13T04:40:47;5.50;99.90
34985;DHT22;21190;58.750;17.004;2022-11-13T04:43:14;5.50;99.90
34985;DHT22;21190;58.750;17.004;2022-11-13T04:45:41;5.50;99.90
34985;DHT22;21190;58.750;17.004;2022-11-13T04:48:08;5.50;99.90
34985;DHT22;21190;58.750;17.004;2022-11-13T04:50:35;5.60;99.90
34985;DHT22;21190;58.750;17.004;2022-11-13T04:53:02;5.60;99.90
34985;DHT22;21190;58.750;17.004;2022-11-13T04:55:29;5.70;99.90
34985;DHT22;21190;58.750;17.004;2022-11-13T04:57:56;5.70;99.90
34985;DHT22;21190;58.750;17.004;2022-11-13T05:00:22;5.70;99.90
34985;DHT22;21190;58.750;17.004;2022-11-13T05:02:49;5.70;99.90
34985;DHT22;21190;58.750;17.004;2022-11-13T05:05:16;5.70;99.90
34985;DHT22;21190;58.750;17.004;2022-11-13T05:07:43;5.70;99.90
34985;DHT22;21190;58.750;17.004;2022-11-13T05:10:10;5.80;99.90
34985;DHT22;21190;58.750;17.004;2022-11-13T05:12:37;5.80;99.90
34985;DHT22;21190;58.750;17.004;2022-11-13T05:15:04;5.80;99.90
34985;DHT22;21190;58.750;17.004;2022-11-13T05:17:31;5.70;99.90
34985;DHT22;21190;58.750;17.004;2022-11-13T05:19:58;5.80;99.90
34985;DHT22;21190;58.750;17.004;2022-11-13T05:22:25;5.80;99.90
34985;DHT22;21190;58.750;17.004;2022-11-13T05:24:51;5.80;99.90
34985;DHT22;21190;58.750;17.004;2022-11-13T05:27:18;5.80;99.90
34985;DHT22;21190;58.750;17.004;2022-11-13T05:29:45;5.70;99.90
34985;DHT22;21190;58.750;17.004;2022-11-13T05:32:12;5.80;99.90
34985;DHT22;21190;58.750;17.004;2022-11-13T05:34:39;5.80;99.90
34985;DHT22;21190;58.750;17.004;2022-11-13T05:37:06;5.80;99.90
34985;DHT22;21190;58.750;17.004;2022-11-13T05:39:33;5.80;99.90
34985;DHT22;21190;58.750;17.004;2022-11-13T05:42:00;5.80;99.90
34985;DHT22;21190;58.750;17.004;2022-11-13T05:44:27;5.80;99.90
34985;DHT22;21190;58.750;17.004;2022-11-13T05:46:54;5.90;99.90
34985;DHT22;21190;58.750;17.004;2022-11-13T05:49:21;5.80;99.90
34985;DHT22;21190;58.750;17.004;2022-11-13T05:51:47;5.70;99.90
34985;DHT22;21190;58.750;17.004;2022-11-13T05:54:14;5.70;99.90
34985;DHT22;21190;58.750;17.004;2022-11-13T05:56:41;5.80;99.90
34985;DHT22;21190;58.750;17.004;2022-11-13T05:59:08;5.70;99.90
34985;DHT22;21190;58.750;17.004;2022-11-13T06:01:36;5.70;99.90
34985;DHT22;21190;58.750;17.004;2022-11-13T06:04:04;5.80;99.90
34985;DHT22;21190;58.750;17.004;2022-11-13T06:06:31;5.80;99.90
34985;DHT22;21190;58.750;17.004;2022-11-13T06:08:59;5.70;99.90
34985;DHT22;21190;58.750;17.004;2022-11-13T06:11:27;5.70;99.90
34985;DHT22;21190;58.750;17.004;2022-11-13T06:13:55;5.70;99.90
34985;DHT22;21190;58.750;17.004;2022-11-13T06:16:26;5.70;99.90
34985;DHT22;21190;58.750;17.004;2022-11-13T06:18:57;5.50;99.90
34985;DHT22;21190;58.750;17.004;2022-11-13T06:21:25;5.50;99.90
34985;DHT22;21190;58.750;17.004;2022-11-13T06:23:52;5.50;99.90
34985;DHT22;21190;58.750;17.004;2022-11-13T06:26:20;5.50;99.90
34985;DHT22;21190;58.750;17.004;2022-11-13T06:28:48;5.50;99.90
34985;DHT22;21190;58.750;17.004;2022-11-13T06:31:16;5.60;99.90
34985;DHT22;21190;58.750;17.004;2022-11-13T06:33:43;5.50;99.90
34985;DHT22;21190;58.750;17.004;2022-11-13T06:36:11;5.50;99.90
34985;DHT22;21190;58.750;17.004;2022-11-13T06:38:39;5.40;99.90
34985;DHT22;21190;58.750;17.004;2022-11-13T06:41:06;5.40;99.90
34985;DHT22;21190;58.750;17.004;2022-11-13T06:43:34;5.30;99.90
34985;DHT22;21190;58.750;17.004;2022-11-13T06:46:04;5.30;99.90
34985;DHT22;21190;58.750;17.004;2022-11-13T06:48:32;5.30;99.90
34985;DHT22;21190;58.750;17.004;2022-11-13T06:51:00;5.20;99.90
34985;DHT22;21190;58.750;17.004;2022-11-13T06:53:28;5.20;99.90
34985;DHT22;21190;58.750;17.004;2022-11-13T06:55:55;5.20;99.90
34985;DHT22;21190;58.750;17.004;2022-11-13T06:58:22;5.10;99.90
34985;DHT22;21190;58.750;17.004;2022-11-13T07:00:49;5.10;99.90
34985;DHT22;21190;58.750;17.004;2022-11-13T07:03:20;5.10;99.90
34985;DHT22;21190;58.750;17.004;2022-11-13T07:05:48;5.10;99.90
34985;DHT22;21190;58.750;17.004;2022-11-13T07:08:15;5.10;99.90
34985;DHT22;21190;58.750;17.004;2022-11-13T07:10:42;5.10;99.90
34985;DHT22;21190;58.750;17.004;2022-11-13T07:13:09;5.00;99.90
34985;DHT22;21190;58.750;17.004;2022-11-13T07:15:37;5.00;99.90
34985;DHT22;21190;58.750;17.004;2022-11-13T07:18:04;5.00;99.90
34985;DHT22;21190;58.750;17.004;2022-11-13T07:20:32;5.00;99.90
34985;DHT22;21190;58.750;17.004;2022-11-13T07:22:59;5.00;99.90
34985;DHT22;21190;58.750;17.004;2022-11-13T07:25:27;5.00;99.90
34985;DHT22;21190;58.750;17.004;2022-11-13T07:27:54;5.00;99.90
34985;DHT22;21190;58.750;17.004;2022-11-13T07:30:21;4.90;99.90
34985;DHT22;21190;58.750;17.004;2022-11-13T07:32:48;4.90;99.90
34985;DHT22;21190;58.750;17.004;2022-11-13T07:35:15;4.90;99.90
34985;DHT22;21190;58.750;17.004;2022-11-13T07:37:42;5.00;99.90
34985;DHT22;21190;58.750;17.004;2022-11-13T07:40:09;5.00;99.90
34985;DHT22;21190;58.750;17.004;2022-11-13T07:42:37;5.00;99.90
34985;DHT22;21190;58.750;17.004;2022-11-13T07:45:04;4.90;99.90
34985;DHT22;21190;58.750;17.004;2022-11-13T07:47:31;5.00;99.90
34985;DHT22;21190;58.750;17.004;2022-11-13T07:49:58;5.10;99.90
34985;DHT22;21190;58.750;17.004;2022-11-13T07:52:35;5.10;99.90
34985;DHT22;21190;58.750;17.004;2022-11-13T07:55:02;5.20;99.90
34985;DHT22;21190;58.750;17.004;2022-11-13T07:57:29;5.20;99.90
34985;DHT22;21190;58.750;17.004;2022-11-13T07:59:55;5.20;99.90
34985;DHT22;21190;58.750;17.004;2022-11-13T08:02:22;5.30;99.90
34985;DHT22;21190;58.750;17.004;2022-11-13T08:04:52;5.30;99.90
34985;DHT22;21190;58.750;17.004;2022-11-13T08:07:19;5.30;99.90
34985;DHT22;21190;58.750;17.004;2022-11-13T08:09:46;5.40;99.90
34985;DHT22;21190;58.750;17.004;2022-11-13T08:12:13;5.40;99.90
34985;DHT22;21190;58.750;17.004;2022-11-13T08:14:40;5.40;99.90
34985;DHT22;21190;58.750;17.004;2022-11-13T08:17:07;5.30;99.90
34985;DHT22;21190;58.750;17.004;2022-11-13T08:19:34;5.40;99.90
34985;DHT22;21190;58.750;17.004;2022-11-13T08:22:00;5.40;99.90
34985;DHT22;21190;58.750;17.004;2022-11-13T08:24:27;5.40;99.90
34985;DHT22;21190;58.750;17.004;2022-11-13T08:26:54;5.40;99.90
34985;DHT22;21190;58.750;17.004;2022-11-13T08:29:21;5.40;99.90
34985;DHT22;21190;58.750;17.004;2022-11-13T08:31:48;5.50;99.90
34985;DHT22;21190;58.750;17.004;2022-11-13T08:34:15;5.40;99.90
34985;DHT22;21190;58.750;17.004;2022-11-13T08:36:42;5.40;99.90
34985;DHT22;21190;58.750;17.004;2022-11-13T08:39:09;5.30;99.90
34985;DHT22;21190;58.750;17.004;2022-11-13T08:41:35;5.30;99.90
34985;DHT22;21190;58.750;17.004;2022-11-13T08:44:02;5.40;99.90
34985;DHT22;21190;58.750;17.004;2022-11-13T08:46:29;5.30;99.90
34985;DHT22;21190;58.750;17.004;2022-11-13T08:48:56;5.30;99.90
34985;DHT22;21190;58.750;17.004;2022-11-13T08:51:23;5.30;99.90
34985;DHT22;21190;58.750;17.004;2022-11-13T08:53:50;5.40;99.90
34985;DHT22;21190;58.750;17.004;2022-11-13T08:56:17;5.30;99.90
34985;DHT22;21190;58.750;17.004;2022-11-13T08:58:45;5.30;99.90
34985;DHT22;21190;58.750;17.004;2022-11-13T09:01:12;5.30;99.90
34985;DHT22;21190;58.750;17.004;2022-11-13T09:03:39;5.30;99.90
34985;DHT22;21190;58.750;17.004;2022-11-13T09:06:06;5.20;99.90
34985;DHT22;21190;58.750;17.004;2022-11-13T09:08:33;5.20;99.90
34985;DHT22;21190;58.750;17.004;2022-11-13T09:11:03;5.30;99.90
34985;DHT22;21190;58.750;17.004;2022-11-13T09:13:31;5.30;99.90
34985;DHT22;21190;58.750;17.004;2022-11-13T09:15:59;5.30;99.90
34985;DHT22;21190;58.750;17.004;2022-11-13T09:18:26;5.20;99.90
34985;DHT22;21190;58.750;17.004;2022-11-13T09:20:54;5.30;99.90
34985;DHT22;21190;58.750;17.004;2022-11-13T09:23:21;5.30;99.90
34985;DHT22;21190;58.750;17.004;2022-11-13T09:25:48;5.40;99.90
34985;DHT22;21190;58.750;17.004;2022-11-13T09:28:14;5.40;99.90
34985;DHT22;21190;58.750;17.004;2022-11-13T09:30:41;5.50;99.90
34985;DHT22;21190;58.750;17.004;2022-11-13T09:33:08;5.50;99.90
34985;DHT22;21190;58.750;17.004;2022-11-13T09:35:35;5.50;99.90
34985;DHT22;21190;58.750;17.004;2022-11-13T09:38:05;5.60;99.90
34985;DHT22;21190;58.750;17.004;2022-11-13T09:43:05;5.70;99.90
34985;DHT22;21190;58.750;17.004;2022-11-13T09:45:35;5.80;99.90
34985;DHT22;21190;58.750;17.004;2022-11-13T09:48:16;5.80;99.90
34985;DHT22;21190;58.750;17.004;2022-11-13T09:50:46;5.80;99.90
34985;DHT22;21190;58.750;17.004;2022-11-13T09:53:12;5.90;99.90
34985;DHT22;21190;58.750;17.004;2022-11-13T09:55:41;5.80;99.90
34985;DHT22;21190;58.750;17.004;2022-11-13T09:58:13;5.80;99.90
34985;DHT22;21190;58.750;17.004;2022-11-13T10:00:43;5.90;99.90
34985;DHT22;21190;58.750;17.004;2022-11-13T10:06:19;5.90;99.90
34985;DHT22;21190;58.750;17.004;2022-11-13T10:13:46;5.90;99.90
34985;DHT22;21190;58.750;17.004;2022-11-13T10:18:40;6.00;99.90
34985;DHT22;21190;58.750;17.004;2022-11-13T10:24:57;6.20;99.90
34985;DHT22;21190;58.750;17.004;2022-11-13T10:26:57;6.20;99.90
34985;DHT22;21190;58.750;17.004;2022-11-13T10:29:26;6.20;99.90
34985;DHT22;21190;58.750;17.004;2022-11-13T10:31:54;6.20;99.90
34985;DHT22;21190;58.750;17.004;2022-11-13T10:34:21;6.20;99.90
34985;DHT22;21190;58.750;17.004;2022-11-13T10:36:53;6.20;99.90
34985;DHT22;21190;58.750;17.004;2022-11-13T10:39:22;6.30;99.90
34985;DHT22;21190;58.750;17.004;2022-11-13T10:41:50;6.30;99.90
34985;DHT22;21190;58.750;17.004;2022-11-13T10:44:19;6.20;99.90
34985;DHT22;21190;58.750;17.004;2022-11-13T10:46:46;6.20;99.90
34985;DHT22;21190;58.750;17.004;2022-11-13T10:49:20;6.10;99.90
34985;DHT22;21190;58.750;17.004;2022-11-13T10:51:57;6.20;99.90
34985;DHT22;21190;58.750;17.004;2022-11-13T10:54:25;6.30;99.90
34985;DHT22;21190;58.750;17.004;2022-11-13T10:56:56;6.30;99.90
34985;DHT22;21190;58.750;17.004;2022-11-13T10:59:24;6.40;99.90
34985;DHT22;21190;58.750;17.004;2022-11-13T11:01:51;6.40;99.90
34985;DHT22;21190;58.750;17.004;2022-11-13T11:04:22;6.40;99.90
34985;DHT22;21190;58.750;17.004;2022-11-13T11:06:50;6.40;99.90
34985;DHT22;21190;58.750;17.004;2022-11-13T11:09:37;6.30;99.90
34985;DHT22;21190;58.750;17.004;2022-11-13T11:20:28;6.40;99.90
34985;DHT22;21190;58.750;17.004;2022-11-13T11:22:48;6.50;99.90
34985;DHT22;21190;58.750;17.004;2022-11-13T11:25:24;6.40;99.90
34985;DHT22;21190;58.750;17.004;2022-11-13T11:28:00;6.40;99.90
34985;DHT22;21190;58.750;17.004;2022-11-13T11:30:29;6.40;99.90
34985;DHT22;21190;58.750;17.004;2022-11-13T11:35:44;6.40;99.90
34985;DHT22;21190;58.750;17.004;2022-11-13T11:38:15;6.40;99.90
34985;DHT22;21190;58.750;17.004;2022-11-13T11:40:51;6.40;99.90
34985;DHT22;21190;58.750;17.004;2022-11-13T11:43:20;6.30;99.90
34985;DHT22;21190;58.750;17.004;2022-11-13T11:45:50;6.40;99.90
34985;DHT22;21190;58.750;17.004;2022-11-13T11:48:19;6.40;99.90
34985;DHT22;21190;58.750;17.004;2022-11-13T11:53:15;6.50;99.90
34985;DHT22;21190;58.750;17.004;2022-11-13T11:58:30;6.50;99.90
34985;DHT22;21190;58.750;17.004;2022-11-13T12:01:06;6.50;99.90
34985;DHT22;21190;58.750;17.004;2022-11-13T12:08:57;6.50;99.90
34985;DHT22;21190;58.750;17.004;2022-11-13T12:19:00;6.50;99.90
34985;DHT22;21190;58.750;17.004;2022-11-13T12:21:38;6.50;99.90
34985;DHT22;21190;58.750;17.004;2022-11-13T12:26:43;6.60;99.90
34985;DHT22;21190;58.750;17.004;2022-11-13T12:36:44;6.50;99.90
34985;DHT22;21190;58.750;17.004;2022-11-13T12:39:19;6.60;99.90
34985;DHT22;21190;58.750;17.004;2022-11-13T12:41:49;6.60;99.90
34985;DHT22;21190;58.750;17.004;2022-11-13T12:44:21;6.50;99.90
34985;DHT22;21190;58.750;17.004;2022-11-13T12:46:49;6.50;99.90
34985;DHT22;21190;58.750;17.004;2022-11-13T12:51:55;6.50;99.90
34985;DHT22;21190;58.750;17.004;2022-11-13T12:54:29;6.50;99.90
34985;DHT22;21190;58.750;17.004;2022-11-13T12:59:39;6.60;99.90
34985;DHT22;21190;58.750;17.004;2022-11-13T13:04:39;6.50;99.90
34985;DHT22;21190;58.750;17.004;2022-11-13T13:12:50;6.50;99.90
34985;DHT22;21190;58.750;17.004;2022-11-13T13:17:47;6.40;99.90
34985;DHT22;21190;58.750;17.004;2022-11-13T13:22:41;6.50;99.90
34985;DHT22;21190;58.750;17.004;2022-11-13T13:25:24;6.50;99.90
34985;DHT22;21190;58.750;17.004;2022-11-13T13:27:56;6.60;99.90
34985;DHT22;21190;58.750;17.004;2022-11-13T13:30:23;6.50;99.90
34985;DHT22;21190;58.750;17.004;2022-11-13T13:47:57;6.70;99.90
34985;DHT22;21190;58.750;17.004;2022-11-13T13:50:25;6.80;99.90
34985;DHT22;21190;58.750;17.004;2022-11-13T13:52:53;6.90;99.90
34985;DHT22;21190;58.750;17.004;2022-11-13T13:55:25;7.00;99.90
34985;DHT22;21190;58.750;17.004;2022-11-13T13:57:53;7.10;99.90
34985;DHT22;21190;58.750;17.004;2022-11-13T14:00:20;6.90;99.90
34985;DHT22;21190;58.750;17.004;2022-11-13T14:02:48;6.90;99.90
34985;DHT22;21190;58.750;17.004;2022-11-13T14:05:31;7.00;99.90
34985;DHT22;21190;58.750;17.004;2022-11-13T14:07:58;7.00;99.90
34985;DHT22;21190;58.750;17.004;2022-11-13T14:10:26;7.00;99.90
34985;DHT22;21190;58.750;17.004;2022-11-13T14:12:54;7.00;99.90
34985;DHT22;21190;58.750;17.004;2022-11-13T14:17:48;7.00;99.90
34985;DHT22;21190;58.750;17.004;2022-11-13T14:20:15;7.00;99.90
34985;DHT22;21190;58.750;17.004;2022-11-13T14:22:43;6.90;99.90
34985;DHT22;21190;58.750;17.004;2022-11-13T14:25:28;6.90;99.90
34985;DHT22;21190;58.750;17.004;2022-11-13T14:27:55;7.00;99.90
34985;DHT22;21190;58.750;17.004;2022-11-13T14:30:25;7.10;99.90
34985;DHT22;21190;58.750;17.004;2022-11-13T14:32:52;7.10;99.90
34985;DHT22;21190;58.750;17.004;2022-11-13T14:35:22;7.10;99.90
34985;DHT22;21190;58.750;17.004;2022-11-13T14:37:50;7.00;99.90
34985;DHT22;21190;58.750;17.004;2022-11-13T14:40:20;7.00;99.90
34985;DHT22;21190;58.750;17.004;2022-11-13T14:42:54;6.90;99.90
34985;DHT22;21190;58.750;17.004;2022-11-13T14:45:24;6.80;99.90
34985;DHT22;21190;58.750;17.004;2022-11-13T14:52:58;6.80;99.90
34985;DHT22;21190;58.750;17.004;2022-11-13T14:55:29;6.80;99.90
34985;DHT22;21190;58.750;17.004;2022-11-13T14:57:56;6.80;99.90
34985;DHT22;21190;58.750;17.004;2022-11-13T15:00:41;6.70;99.90
34985;DHT22;21190;58.750;17.004;2022-11-13T15:03:08;6.70;99.90
34985;DHT22;21190;58.750;17.004;2022-11-13T15:05:35;6.70;99.90
34985;DHT22;21190;58.750;17.004;2022-11-13T15:08:02;6.70;99.90
34985;DHT22;21190;58.750;17.004;2022-11-13T15:10:29;6.60;99.90
34985;DHT22;21190;58.750;17.004;2022-11-13T15:12:56;6.60;99.90
34985;DHT22;21190;58.750;17.004;2022-11-13T15:15:24;6.60;99.90
34985;DHT22;21190;58.750;17.004;2022-11-13T15:17:52;6.70;99.90
34985;DHT22;21190;58.750;17.004;2022-11-13T15:22:46;6.70;99.90
34985;DHT22;21190;58.750;17.004;2022-11-13T15:25:14;6.70;99.90
34985;DHT22;21190;58.750;17.004;2022-11-13T15:27:41;6.70;99.90
34985;DHT22;21190;58.750;17.004;2022-11-13T15:30:09;6.60;99.90
34985;DHT22;21190;58.750;17.004;2022-11-13T15:32:36;6.60;99.90
34985;DHT22;21190;58.750;17.004;2022-11-13T15:35:04;6.60;99.90
34985;DHT22;21190;58.750;17.004;2022-11-13T15:37:30;6.60;99.90
34985;DHT22;21190;58.750;17.004;2022-11-13T15:39:57;6.60;99.90
34985;DHT22;21190;58.750;17.004;2022-11-13T15:42:28;6.60;99.90
34985;DHT22;21190;58.750;17.004;2022-11-13T15:44:57;6.50;99.90
34985;DHT22;21190;58.750;17.004;2022-11-13T15:49:57;6.60;99.90
34985;DHT22;21190;58.750;17.004;2022-11-13T15:52:45;6.70;99.90
34985;DHT22;21190;58.750;17.004;2022-11-13T15:55:19;6.70;99.90
34985;DHT22;21190;58.750;17.004;2022-11-13T15:57:46;6.70;99.90
34985;DHT22;21190;58.750;17.004;2022-11-13T16:00:14;6.70;99.90
34985;DHT22;21190;58.750;17.004;2022-11-13T16:02:41;6.70;99.90
34985;DHT22;21190;58.750;17.004;2022-11-13T16:05:08;6.70;99.90
34985;DHT22;21190;58.750;17.004;2022-11-13T16:07:35;6.60;99.90
34985;DHT22;21190;58.750;17.004;2022-11-13T16:10:10;6.70;99.90
34985;DHT22;21190;58.750;17.004;2022-11-13T16:12:37;6.70;99.90
34985;DHT22;21190;58.750;17.004;2022-11-13T16:15:04;6.80;99.90
34985;DHT22;21190;58.750;17.004;2022-11-13T16:17:32;6.70;99.90
34985;DHT22;21190;58.750;17.004;2022-11-13T16:20:02;6.80;99.90
34985;DHT22;21190;58.750;17.004;2022-11-13T16:22:32;6.90;99.90
34985;DHT22;21190;58.750;17.004;2022-11-13T16:24:59;6.90;99.90
34985;DHT22;21190;58.750;17.004;2022-11-13T16:27:27;6.90;99.90
34985;DHT22;21190;58.750;17.004;2022-11-13T16:29:54;6.90;99.90
34985;DHT22;21190;58.750;17.004;2022-11-13T16:32:21;7.00;99.90
34985;DHT22;21190;58.750;17.004;2022-11-13T16:34:48;6.90;99.90
34985;DHT22;21190;58.750;17.004;2022-11-13T16:37:16;6.90;99.90
34985;DHT22;21190;58.750;17.004;2022-11-13T16:39:44;6.90;99.90
34985;DHT22;21190;58.750;17.004;2022-11-13T16:42:11;6.90;99.90
34985;DHT22;21190;58.750;17.004;2022-11-13T16:44:38;6.90;99.90
34985;DHT22;21190;58.750;17.004;2022-11-13T16:47:13;6.90;99.90
34985;DHT22;21190;58.750;17.004;2022-11-13T16:49:43;6.80;99.90
34985;DHT22;21190;58.750;17.004;2022-11-13T16:52:10;6.80;99.90
34985;DHT22;21190;58.750;17.004;2022-11-13T16:54:37;6.80;99.90
34985;DHT22;21190;58.750;17.004;2022-11-13T16:57:03;6.90;99.90
34985;DHT22;21190;58.750;17.004;2022-11-13T16:59:30;6.90;99.90
34985;DHT22;21190;58.750;17.004;2022-11-13T17:01:58;6.90;99.90
34985;DHT22;21190;58.750;17.004;2022-11-13T17:04:25;6.90;99.90
34985;DHT22;21190;58.750;17.004;2022-11-13T17:06:52;6.90;99.90
34985;DHT22;21190;58.750;17.004;2022-11-13T17:09:23;6.90;99.90
34985;DHT22;21190;58.750;17.004;2022-11-13T17:11:50;6.90;99.90
34985;DHT22;21190;58.750;17.004;2022-11-13T17:14:17;7.00;99.90
34985;DHT22;21190;58.750;17.004;2022-11-13T17:16:43;7.00;99.90
34985;DHT22;21190;58.750;17.004;2022-11-13T17:19:11;7.00;99.90
34985;DHT22;21190;58.750;17.004;2022-11-13T17:21:38;6.90;99.90